createdAt,value
2024-02-15T05:09:27.717Z,9.58
2024-02-15T05:12:30.797Z,9.58
2024-02-15T05:15:34.150Z,9.06
2024-02-15T05:18:36.875Z,8.95
2024-02-15T05:21:39.392Z,8.99
2024-02-15T05:24:41.793Z,9.27
2024-02-15T05:27:45.410Z,9.18
2024-02-15T05:30:47.836Z,9.22
2024-02-15T05:33:54.740Z,8.99
2024-02-15T05:36:57.336Z,9.16
2024-02-15T05:39:59.471Z,9.21
2024-02-15T05:43:03.281Z,9.10
2024-02-15T05:46:07.700Z,9.26
2024-02-15T05:49:16.405Z,9.07
2024-02-15T05:52:19.562Z,9.27
2024-02-15T05:55:22.127Z,9.32
2024-02-15T05:58:24.939Z,9.29
2024-02-15T06:01:27.437Z,9.28
2024-02-15T06:04:31.009Z,9.24
2024-02-15T06:07:33.289Z,9.30
2024-02-15T06:10:35.754Z,9.33
2024-02-15T06:13:37.901Z,9.24
2024-02-15T06:16:46.144Z,9.34
2024-02-15T06:19:48.370Z,9.41
2024-02-15T06:22:53.019Z,9.44
2024-02-15T06:26:01.948Z,9.92
2024-02-15T06:29:22.822Z,9.65
2024-02-15T06:32:43.919Z,9.65
2024-02-15T06:36:04.946Z,9.78
2024-02-15T06:39:25.737Z,9.60
2024-02-15T06:42:30.865Z,9.69
2024-02-15T06:45:33.296Z,9.71
2024-02-15T06:48:36.125Z,9.81
2024-02-15T06:51:38.664Z,9.64
2024-02-15T06:54:46.602Z,9.71
2024-02-15T06:57:52.000Z,9.56
2024-02-15T07:00:56.142Z,9.57
2024-02-15T07:03:59.816Z,9.44
2024-02-15T07:07:07.669Z,9.48
2024-02-15T07:10:15.347Z,9.49
2024-02-15T07:13:33.255Z,9.55
2024-02-15T07:16:39.129Z,9.70
2024-02-15T07:19:50.822Z,9.73
2024-02-15T07:22:57.263Z,9.71
2024-02-15T07:26:01.915Z,9.97
2024-02-15T07:29:12.391Z,9.81
2024-02-15T07:32:19.672Z,9.84
2024-02-15T07:35:27.510Z,9.76
2024-02-15T07:38:37.071Z,9.96
2024-02-15T07:41:45.354Z,9.82
2024-02-15T07:44:51.354Z,9.79
2024-02-15T07:47:55.175Z,10.01
2024-02-15T07:51:00.580Z,9.92
2024-02-15T07:54:06.538Z,9.84
2024-02-15T07:57:12.665Z,10.02
2024-02-15T08:00:18.200Z,9.98
2024-02-15T08:03:22.194Z,10.11
2024-02-15T08:06:30.129Z,10.16
2024-02-15T08:09:34.050Z,10.18
2024-02-15T08:12:37.127Z,10.30
2024-02-15T08:15:41.323Z,10.38
2024-02-15T08:18:48.320Z,10.45
2024-02-15T08:21:53.043Z,10.60
2024-02-15T08:24:59.963Z,10.70
2024-02-15T08:28:06.972Z,10.62
2024-02-15T08:31:12.361Z,10.66
2024-02-15T08:34:15.860Z,10.82
2024-02-15T08:37:19.605Z,10.75
2024-02-15T08:40:26.684Z,10.94
2024-02-15T08:43:29.228Z,10.91
2024-02-15T08:46:32.314Z,10.99
2024-02-15T08:49:36.146Z,11.06
2024-02-15T08:52:40.414Z,11.11
2024-02-15T08:55:43.166Z,10.84
2024-02-15T08:58:46.361Z,10.68
2024-02-15T09:01:48.500Z,10.70
2024-02-15T09:04:51.064Z,10.65
2024-02-15T09:07:53.347Z,10.67
2024-02-15T09:10:55.881Z,11.00
2024-02-15T09:13:58.122Z,10.88
2024-02-15T09:17:10.934Z,10.95
2024-02-15T09:20:22.534Z,11.01
2024-02-15T09:23:25.239Z,11.00
2024-02-15T09:26:29.053Z,11.31
2024-02-15T09:29:33.632Z,11.39
2024-02-15T09:32:37.061Z,11.18
2024-02-15T09:35:39.885Z,11.24
2024-02-15T09:38:44.719Z,11.16
2024-02-15T09:41:47.305Z,11.20
2024-02-15T09:44:49.484Z,10.82
2024-02-15T09:47:54.649Z,10.93
2024-02-15T09:50:59.787Z,11.41
2024-02-15T09:54:03.042Z,11.59
2024-02-15T09:57:06.956Z,11.27
2024-02-15T10:00:14.586Z,11.46
2024-02-15T10:03:24.331Z,11.42
2024-02-15T10:06:28.414Z,11.65
2024-02-15T10:09:32.008Z,11.70
2024-02-15T10:12:40.329Z,11.89
2024-02-15T10:15:42.789Z,11.91
2024-02-15T10:18:46.077Z,11.95
2024-02-15T10:21:49.853Z,11.85
2024-02-15T10:24:52.083Z,11.90
2024-02-15T10:28:03.931Z,12.01
2024-02-15T10:31:09.369Z,12.06
2024-02-15T10:34:15.416Z,12.10
2024-02-15T10:37:18.411Z,12.16
2024-02-15T10:40:21.906Z,12.00
2024-02-15T10:43:24.183Z,12.13
2024-02-15T10:46:26.897Z,12.25
2024-02-15T10:49:29.328Z,12.13
2024-02-15T10:52:33.440Z,12.23
2024-02-15T10:55:41.742Z,12.21
2024-02-15T10:58:50.689Z,12.41
2024-02-15T11:01:59.878Z,12.20
2024-02-15T11:05:13.154Z,12.19
2024-02-15T11:08:18.067Z,12.56
2024-02-15T11:11:21.677Z,12.68
2024-02-15T11:14:27.222Z,12.61
2024-02-15T11:17:58.666Z,12.44
2024-02-15T11:21:01.472Z,12.40
2024-02-15T11:24:29.025Z,12.42
2024-02-15T11:27:33.008Z,12.65
2024-02-15T11:30:35.720Z,12.85
2024-02-15T11:33:38.325Z,12.73
2024-02-15T11:36:43.898Z,12.99
2024-02-15T11:39:48.094Z,12.65
2024-02-15T11:42:54.395Z,12.86
2024-02-15T11:45:59.986Z,12.83
2024-02-15T11:49:04.840Z,12.81
2024-02-15T11:52:12.436Z,12.65
2024-02-15T11:55:20.277Z,12.70
2024-02-15T11:58:30.114Z,12.76
2024-02-15T12:01:52.654Z,12.96
2024-02-15T12:05:13.965Z,13.02
2024-02-15T12:08:34.959Z,13.10
2024-02-15T12:11:56.548Z,12.98
2024-02-15T12:15:19.143Z,13.12
2024-02-15T12:18:44.423Z,13.03
2024-02-15T12:21:48.092Z,12.91
2024-02-15T12:25:01.465Z,12.97
2024-02-15T12:28:05.478Z,13.23
2024-02-15T12:31:15.162Z,13.15
2024-02-15T12:34:21.867Z,13.33
2024-02-15T12:37:24.849Z,13.16
2024-02-15T12:40:35.108Z,13.29
2024-02-15T12:43:38.169Z,13.44
2024-02-15T12:46:41.365Z,13.35
2024-02-15T12:49:43.858Z,13.43
2024-02-15T12:52:50.756Z,13.48
2024-02-15T12:55:55.959Z,13.61
2024-02-15T12:58:58.059Z,13.57
2024-02-15T13:02:00.615Z,13.56
2024-02-15T13:05:04.127Z,13.50
2024-02-15T13:08:11.507Z,13.53
2024-02-15T13:11:14.314Z,13.56
2024-02-15T13:14:16.925Z,13.62
2024-02-15T13:17:19.113Z,13.34
2024-02-15T13:20:36.677Z,13.47
2024-02-15T13:23:40.216Z,13.35
2024-02-15T13:26:42.805Z,13.29
2024-02-15T13:29:46.967Z,13.30
2024-02-15T13:32:50.106Z,13.33
2024-02-15T13:35:52.400Z,12.99
2024-02-15T13:38:57.067Z,13.05
2024-02-15T13:41:59.570Z,13.18
2024-02-15T13:45:03.095Z,13.01
2024-02-15T13:48:06.442Z,13.22
2024-02-15T13:51:10.342Z,13.32
2024-02-15T13:54:12.857Z,13.27
2024-02-15T13:57:15.975Z,13.39
2024-02-15T14:00:23.075Z,13.33
2024-02-15T14:03:26.470Z,13.32
2024-02-15T14:06:29.312Z,13.49
2024-02-15T14:09:31.893Z,13.41
2024-02-15T14:12:35.403Z,13.30
2024-02-15T14:15:39.310Z,13.21
2024-02-15T14:18:45.923Z,12.91
2024-02-15T14:21:48.674Z,12.99
2024-02-15T14:24:52.457Z,13.09
2024-02-15T14:27:55.769Z,12.96
2024-02-15T14:31:16.436Z,12.86
2024-02-15T14:34:19.062Z,12.84
2024-02-15T14:37:23.420Z,12.88
2024-02-15T14:40:27.502Z,13.03
2024-02-15T14:43:30.361Z,12.91
2024-02-15T14:46:36.563Z,12.81
2024-02-15T14:49:38.735Z,12.88
2024-02-15T14:52:41.270Z,12.68
2024-02-15T14:55:50.187Z,12.73
2024-02-15T14:58:52.919Z,12.68
2024-02-15T15:02:02.366Z,12.66
2024-02-15T15:05:24.595Z,12.86
2024-02-15T15:08:45.457Z,12.89
2024-02-15T15:12:06.330Z,12.77
2024-02-15T15:15:09.206Z,12.69
2024-02-15T15:18:12.390Z,12.76
2024-02-15T15:21:17.174Z,12.82
2024-02-15T15:24:19.736Z,12.81
2024-02-15T15:27:21.933Z,12.74
2024-02-15T15:30:24.414Z,12.68
2024-02-15T15:33:26.639Z,12.78
2024-02-15T15:36:29.274Z,12.63
2024-02-15T15:39:34.207Z,12.66
2024-02-15T15:42:36.793Z,12.56
2024-02-15T15:45:38.946Z,12.58
2024-02-15T15:48:41.589Z,12.69
2024-02-15T15:51:44.772Z,12.69
2024-02-15T15:54:48.073Z,12.66
2024-02-15T15:57:50.931Z,12.71
2024-02-15T16:00:53.403Z,12.63
2024-02-15T16:03:56.142Z,12.76
2024-02-15T16:06:58.373Z,12.68
2024-02-15T16:10:00.811Z,12.85
2024-02-15T16:13:03.122Z,12.78
2024-02-15T16:16:06.768Z,12.74
2024-02-15T16:19:09.020Z,12.73
2024-02-15T16:22:11.713Z,12.62
2024-02-15T16:25:14.579Z,12.73
2024-02-15T16:28:17.164Z,12.65
2024-02-15T16:31:19.322Z,12.58
2024-02-15T16:34:22.024Z,12.66
2024-02-15T16:37:27.399Z,12.48
2024-02-15T16:40:29.857Z,12.47
2024-02-15T16:43:32.465Z,12.54
2024-02-15T16:46:35.102Z,12.48
2024-02-15T16:49:38.126Z,12.50
2024-02-15T16:52:43.587Z,12.29
2024-02-15T16:55:47.192Z,12.51
2024-02-15T16:58:50.042Z,12.39
2024-02-15T17:01:53.982Z,12.27
2024-02-15T17:04:56.541Z,12.28
2024-02-15T17:07:59.434Z,12.27
2024-02-15T17:11:01.947Z,12.41
2024-02-15T17:14:04.461Z,12.32
2024-02-15T17:17:07.172Z,12.14
2024-02-15T17:20:16.181Z,12.10
2024-02-15T17:23:18.731Z,12.03
